Dati Storici

Data ora Umidita' aria (%) Temperatura aria (°C) Rad globale (W/m²) Gonioanemometro (°) Tacoanemometro (m/s) Pioggia (mm)
15-10-2012 00:00 80.9 % 14.282 2.449 60.948 2.073 0
14-10-2012 23:50 80.7 % 14.217 2.32 8.921 2.49 0
14-10-2012 23:40 80.3 % 14.383 2.564 62.388 1.621 0
14-10-2012 23:30 80.2 % 14.575 2.256 43.454 1.443 0
14-10-2012 23:20 80 % 14.656 2.269 0.129 1.587 0
14-10-2012 23:10 79.7 % 14.745 2.154 30.059 1.861 0
14-10-2012 23:00 79.5 % 14.932 2.384 27.448 1.867 0
14-10-2012 22:50 79.7 % 14.934 2.346 15.02 2.143 0
14-10-2012 22:40 79.6 % 15.086 3.641 38.672 1.561 0
14-10-2012 22:30 80 % 15.108 3.324 25.413 2.631 0
14-10-2012 22:20 80.3 % 15.075 4.221 38.056 1.813 0
14-10-2012 22:10 80.3 % 14.937 3.093 20.576 2.058 0
14-10-2012 22:00 79.7 % 15.199 4.028 41.44 2.083 0
14-10-2012 21:50 79.7 % 15.25 4.119 305.13 2.183 0
14-10-2012 21:40 79.5 % 15.114 2.632 301.66 0.785 0
14-10-2012 21:30 79.2 % 15.115 2.247 17.149 0.613 0
14-10-2012 21:20 78.8 % 15.146 2.093 2.444 1.131 0
14-10-2012 21:10 77.6 % 15.316 2.08 96.719 0.592 0
14-10-2012 21:00 77.4 % 15.573 2.324 31.768 1.142 0
14-10-2012 20:50 77.2 % 15.71 3.336 35.122 0.807 0

I dati sono presentati in modo automatico a scopo informativo. In seguito a verifica i dati possono subire modifiche o essere invalidati e non riportati negli archivi definitivi.